createdAt,value
2023-05-09T00:02:03.566Z,101688.50
2023-05-09T00:04:30.660Z,101689.13
2023-05-09T00:06:57.589Z,101693.47
2023-05-09T00:09:24.800Z,101685.22
2023-05-09T00:11:52.853Z,101681.69
2023-05-09T00:14:19.688Z,101679.84
2023-05-09T00:16:48.413Z,101677.16
2023-05-09T00:19:15.239Z,101668.47
2023-05-09T00:21:42.425Z,101667.66
2023-05-09T00:24:09.281Z,101655.06
2023-05-09T00:26:36.044Z,101658.78
2023-05-09T00:29:02.938Z,101654.88
2023-05-09T00:31:29.838Z,101647.84
2023-05-09T00:33:58.429Z,101649.50
2023-05-09T00:36:27.544Z,101638.78
2023-05-09T00:38:54.336Z,101644.16
2023-05-09T00:41:23.886Z,101646.63
2023-05-09T00:43:50.748Z,101637.75
2023-05-09T00:46:17.703Z,101640.44
2023-05-09T00:48:45.797Z,101631.56
2023-05-09T00:51:14.003Z,101632.19
2023-05-09T00:53:40.885Z,101632.78
2023-05-09T00:56:09.211Z,101634.69
2023-05-09T00:58:37.547Z,101633.63
2023-05-09T01:01:05.040Z,101617.75
2023-05-09T01:03:32.530Z,101628.25
2023-05-09T01:06:06.849Z,101628.25
2023-05-09T01:08:46.950Z,101613.00
2023-05-09T01:11:23.031Z,101618.59
2023-05-09T01:13:59.320Z,101606.19
2023-05-09T01:16:35.263Z,101603.50
2023-05-09T01:19:12.636Z,101601.44
2023-05-09T01:21:43.738Z,101598.75
2023-05-09T01:24:42.094Z,101592.56
2023-05-09T01:27:22.306Z,101589.88
2023-05-09T01:29:55.654Z,101586.38
2023-05-09T01:32:25.468Z,101581.81
2023-05-09T01:35:05.730Z,101585.13
2023-05-09T01:37:36.479Z,101588.84
2023-05-09T01:40:08.506Z,101583.47
2023-05-09T01:42:41.299Z,101579.13
2023-05-09T01:45:12.699Z,101576.47
2023-05-09T01:47:41.663Z,101579.97
2023-05-09T01:50:11.543Z,101578.13
2023-05-09T01:52:40.223Z,101578.94
2023-05-09T01:55:09.954Z,101582.25
2023-05-09T01:57:39.063Z,101566.16
2023-05-09T02:00:08.164Z,101573.19
2023-05-09T02:02:37.589Z,101563.47
2023-05-09T02:05:06.714Z,101555.44
2023-05-09T02:07:34.564Z,101556.25
2023-05-09T02:10:05.114Z,101554.59
2023-05-09T02:12:32.227Z,101550.88
2023-05-09T02:14:59.278Z,101556.25
2023-05-09T02:17:26.231Z,101554.22
2023-05-09T02:19:54.426Z,101557.91
2023-05-09T02:22:21.700Z,101554.41
2023-05-09T02:24:48.574Z,101545.53
2023-05-09T02:27:15.817Z,101543.03
2023-05-09T02:29:46.413Z,101537.66
2023-05-09T02:32:17.068Z,101543.03
2023-05-09T02:34:46.427Z,101536.00
2023-05-09T02:37:15.692Z,101533.34
2023-05-09T02:39:44.861Z,101540.56
2023-05-09T02:42:13.640Z,101543.22
2023-05-09T02:44:41.717Z,101536.84
2023-05-09T02:47:08.717Z,101537.66
2023-05-09T02:49:35.728Z,101537.66
2023-05-09T02:52:02.934Z,101533.13
2023-05-09T02:54:31.196Z,101533.97
2023-05-09T02:56:59.251Z,101533.34
2023-05-09T02:59:29.648Z,101527.13
2023-05-09T03:01:57.149Z,101533.97
2023-05-09T03:04:25.647Z,101518.69
2023-05-09T03:06:52.600Z,101521.56
2023-05-09T03:09:20.848Z,101514.56
2023-05-09T03:11:50.675Z,101509.19
2023-05-09T03:14:17.469Z,101514.75
2023-05-09T03:16:44.927Z,101511.28
2023-05-09T03:19:11.848Z,101516.63
2023-05-09T03:21:38.637Z,101507.13
2023-05-09T03:24:09.514Z,101504.66
2023-05-09T03:26:37.435Z,101505.69
2023-05-09T03:29:05.852Z,101511.03
2023-05-09T03:31:33.070Z,101515.38
2023-05-09T03:34:01.193Z,101507.53
2023-05-09T03:36:27.975Z,101497.81
2023-05-09T03:38:55.803Z,101495.97
2023-05-09T03:41:24.878Z,101492.25
2023-05-09T03:43:51.640Z,101489.56
2023-05-09T03:46:20.145Z,101483.38
2023-05-09T03:48:47.239Z,101486.91
2023-05-09T03:51:16.614Z,101484.00
2023-05-09T03:53:45.557Z,101485.03
2023-05-09T03:56:12.345Z,101484.00
2023-05-09T03:58:39.145Z,101481.34
2023-05-09T04:01:06.581Z,101481.53
2023-05-09T04:03:35.114Z,101477.19
2023-05-09T04:06:01.984Z,101468.53
2023-05-09T04:08:28.908Z,101464.22
2023-05-09T04:10:56.662Z,101456.38
2023-05-09T04:13:23.770Z,101460.06
2023-05-09T04:15:51.456Z,101458.22
2023-05-09T04:18:18.307Z,101459.25
2023-05-09T04:20:47.623Z,101460.06
2023-05-09T04:23:17.419Z,101456.38
2023-05-09T04:25:44.095Z,101459.25
2023-05-09T04:28:10.961Z,101461.94
2023-05-09T04:30:37.926Z,101462.75
2023-05-09T04:33:05.603Z,101464.81
2023-05-09T04:35:32.678Z,101466.69
2023-05-09T04:38:00.815Z,101455.97
2023-05-09T04:40:28.008Z,101468.31
2023-05-09T04:42:54.881Z,101454.06
2023-05-09T04:45:21.950Z,101448.94
2023-05-09T04:47:49.617Z,101449.97
2023-05-09T04:50:16.733Z,101444.81
2023-05-09T04:52:43.493Z,101442.94
2023-05-09T04:55:12.253Z,101435.94
2023-05-09T04:57:39.478Z,101437.97
2023-05-09T05:00:08.127Z,101429.94
2023-05-09T05:02:35.013Z,101426.44
2023-05-09T05:05:10.986Z,101427.50
2023-05-09T05:07:38.618Z,101434.69
2023-05-09T05:10:06.592Z,101434.69
2023-05-09T05:12:34.826Z,101440.47
2023-05-09T05:15:01.563Z,101431.78
2023-05-09T05:17:29.582Z,101427.25
2023-05-09T05:19:56.528Z,101420.22
2023-05-09T05:22:24.449Z,101417.34
2023-05-09T05:24:53.567Z,101420.03
2023-05-09T05:27:21.862Z,101410.97
2023-05-09T05:29:50.027Z,101404.78
2023-05-09T05:32:16.855Z,101408.28
2023-05-09T05:34:43.645Z,101405.22
2023-05-09T05:37:10.555Z,101410.34
2023-05-09T05:39:37.682Z,101409.31
2023-05-09T05:42:04.518Z,101401.88
2023-05-09T05:44:31.302Z,101396.53
2023-05-09T05:47:03.370Z,101392.81
2023-05-09T05:49:31.308Z,101387.44
2023-05-09T05:51:58.118Z,101385.41
2023-05-09T05:54:24.923Z,101377.94
2023-05-09T05:56:54.033Z,101377.75
2023-05-09T05:59:22.227Z,101383.75
2023-05-09T06:01:49.559Z,101368.66
2023-05-09T06:04:21.004Z,101366.63
2023-05-09T06:06:47.801Z,101361.25
2023-05-09T06:09:14.635Z,101356.72
2023-05-09T06:11:43.036Z,101363.69
2023-05-09T06:14:21.767Z,101359.78
2023-05-09T06:16:51.033Z,101353.00
2023-05-09T06:19:30.751Z,101353.38
2023-05-09T06:21:59.483Z,101355.66
2023-05-09T06:24:35.570Z,101353.81
2023-05-09T06:27:04.380Z,101346.56
2023-05-09T06:29:32.252Z,101347.38
2023-05-09T06:31:59.811Z,101340.97
2023-05-09T06:34:28.024Z,101331.69
2023-05-09T06:36:54.801Z,101333.34
2023-05-09T06:39:21.603Z,101331.25
2023-05-09T06:41:48.247Z,101336.63
2023-05-09T06:44:15.037Z,101330.84
2023-05-09T06:46:42.218Z,101324.25
2023-05-09T06:49:09.075Z,101318.44
2023-05-09T06:51:37.289Z,101314.53
2023-05-09T06:54:04.192Z,101307.91
2023-05-09T06:56:32.576Z,101309.34
2023-05-09T06:58:59.372Z,101308.75
2023-05-09T07:01:26.200Z,101310.16
2023-05-09T07:03:53.171Z,101294.06
2023-05-09T07:06:19.901Z,101300.88
2023-05-09T07:08:47.888Z,101296.13
2023-05-09T07:11:16.290Z,101293.81
2023-05-09T07:13:43.011Z,101287.81
2023-05-09T07:16:09.739Z,101290.91
2023-05-09T07:18:36.516Z,101284.28
2023-05-09T07:21:03.550Z,101276.22
2023-05-09T07:23:30.342Z,101280.13
2023-05-09T07:25:58.880Z,101271.03
2023-05-09T07:28:26.182Z,101274.91
2023-05-09T07:30:53.069Z,101267.47
2023-05-09T07:33:19.847Z,101265.41
2023-05-09T07:35:46.686Z,101267.84
2023-05-09T07:38:13.895Z,101262.28
2023-05-09T07:40:41.182Z,101254.63
2023-05-09T07:43:09.416Z,101252.53
2023-05-09T07:45:36.517Z,101255.81
2023-05-09T07:48:03.530Z,101246.31
2023-05-09T07:50:30.467Z,101244.22
2023-05-09T07:52:57.480Z,101239.44
2023-05-09T07:55:24.244Z,101240.88
2023-05-09T07:57:51.207Z,101233.41
2023-05-09T08:00:23.606Z,101231.97
2023-05-09T08:02:51.043Z,101232.56
2023-05-09T08:05:19.033Z,101229.25
2023-05-09T08:07:46.233Z,101220.75
2023-05-09T08:10:13.433Z,101225.09
2023-05-09T08:12:40.834Z,101223.00
2023-05-09T08:15:08.459Z,101217.22
2023-05-09T08:17:37.010Z,101213.03
2023-05-09T08:20:06.968Z,101214.69
2023-05-09T08:22:33.922Z,101209.91
2023-05-09T08:25:00.975Z,101211.53
2023-05-09T08:27:27.634Z,101205.94
2023-05-09T08:29:54.437Z,101207.59
2023-05-09T08:32:21.183Z,101202.22
2023-05-09T08:34:49.258Z,101195.00
2023-05-09T08:37:16.122Z,101197.25
2023-05-09T08:39:43.062Z,101196.19
2023-05-09T08:42:10.562Z,101194.56
2023-05-09T08:44:37.357Z,101195.59
2023-05-09T08:47:05.021Z,101192.09
2023-05-09T08:49:33.394Z,101189.41
2023-05-09T08:52:01.822Z,101184.03
2023-05-09T08:54:29.226Z,101179.69
2023-05-09T08:56:56.166Z,101172.22
2023-05-09T08:59:23.006Z,101171.78
2023-05-09T09:01:50.966Z,101174.47
2023-05-09T09:04:18.064Z,101173.22
2023-05-09T09:06:46.398Z,101160.38
2023-05-09T09:09:17.453Z,101169.00
2023-05-09T09:11:45.332Z,101167.38
2023-05-09T09:14:16.133Z,101165.75
2023-05-09T09:16:45.051Z,101167.84
2023-05-09T09:19:13.858Z,101171.78
2023-05-09T09:21:45.813Z,101170.94
2023-05-09T09:24:14.576Z,101167.69
2023-05-09T09:26:50.221Z,101166.84
2023-05-09T09:29:18.693Z,101157.56
2023-05-09T09:31:47.175Z,101159.66
2023-05-09T09:34:20.568Z,101156.59
2023-05-09T09:36:48.539Z,101156.81
2023-05-09T09:39:16.869Z,101157.63
2023-05-09T09:41:45.129Z,101163.22
2023-05-09T09:44:13.655Z,101152.47
2023-05-09T09:46:45.329Z,101149.56
2023-05-09T09:49:13.466Z,101151.84
2023-05-09T09:51:40.788Z,101146.47
2023-05-09T09:54:08.992Z,101143.78
2023-05-09T09:56:41.832Z,101148.91
2023-05-09T09:59:09.942Z,101142.72
2023-05-09T10:01:36.745Z,101138.16
2023-05-09T10:04:03.846Z,101134.44
2023-05-09T10:06:31.244Z,101133.16
2023-05-09T10:08:57.892Z,101132.75
2023-05-09T10:11:24.725Z,101132.28
2023-05-09T10:13:53.618Z,101132.66
2023-05-09T10:16:28.519Z,101136.53
2023-05-09T10:19:03.559Z,101134.28
2023-05-09T10:21:31.559Z,101132.16
2023-05-09T10:23:59.478Z,101131.94
2023-05-09T10:26:32.508Z,101124.50
2023-05-09T10:29:07.972Z,101121.59
2023-05-09T10:31:37.162Z,101115.13
2023-05-09T10:34:09.986Z,101111.41
2023-05-09T10:36:38.387Z,101103.34
2023-05-09T10:39:05.885Z,101093.41
2023-05-09T10:41:33.082Z,101097.53
2023-05-09T10:44:01.502Z,101098.34
2023-05-09T10:46:28.931Z,101097.06
2023-05-09T10:48:57.443Z,101095.44
2023-05-09T10:51:25.084Z,101092.75
2023-05-09T10:53:52.166Z,101091.94
2023-05-09T10:56:27.527Z,101087.81
2023-05-09T10:58:54.776Z,101101.47
2023-05-09T11:01:35.552Z,101093.88
2023-05-09T11:04:10.083Z,101091.63
2023-05-09T11:06:46.668Z,101090.81
2023-05-09T11:09:28.381Z,101085.63
2023-05-09T11:11:57.080Z,101087.75
2023-05-09T11:14:31.881Z,101084.66
2023-05-09T11:17:01.018Z,101078.09
2023-05-09T11:19:37.437Z,101077.25
2023-05-09T11:22:14.132Z,101079.00
2023-05-09T11:24:44.410Z,101081.72
2023-05-09T11:27:19.648Z,101076.19
2023-05-09T11:29:51.597Z,101079.34
2023-05-09T11:32:20.877Z,101076.88
2023-05-09T11:34:48.271Z,101072.16
2023-05-09T11:37:18.435Z,101067.25
2023-05-09T11:40:01.561Z,101068.50
2023-05-09T11:42:29.313Z,101064.16
2023-05-09T11:44:58.624Z,101062.53
2023-05-09T11:47:29.587Z,101060.28
2023-05-09T11:49:56.568Z,101056.78
2023-05-09T11:52:24.198Z,101055.75
2023-05-09T11:54:51.420Z,101055.13
2023-05-09T11:57:19.597Z,101046.03
2023-05-09T11:59:46.463Z,101046.25
2023-05-09T12:02:14.530Z,101037.63
2023-05-09T12:04:44.265Z,101035.72
2023-05-09T12:07:12.667Z,101026.88
2023-05-09T12:09:40.603Z,101026.88
2023-05-09T12:12:11.520Z,101016.91
2023-05-09T12:14:39.691Z,101022.53
2023-05-09T12:17:06.879Z,101026.88
2023-05-09T12:19:34.349Z,101020.28
2023-05-09T12:22:03.901Z,101023.78
2023-05-09T12:24:31.480Z,101015.13
2023-05-09T12:26:59.984Z,101015.94
2023-05-09T12:29:27.254Z,101012.44
2023-05-09T12:31:54.567Z,101017.25
2023-05-09T12:34:21.589Z,101011.03
2023-05-09T12:36:53.158Z,101012.09
2023-05-09T12:39:23.185Z,101007.75
2023-05-09T12:42:01.059Z,101007.97
2023-05-09T12:44:29.873Z,101001.19
2023-05-09T12:46:58.401Z,100997.28
2023-05-09T12:49:26.029Z,100985.50
2023-05-09T12:51:54.022Z,100995.44
2023-05-09T12:54:23.659Z,100989.84
2023-05-09T12:56:55.476Z,100987.16
2023-05-09T12:59:23.989Z,100992.13
2023-05-09T13:01:56.592Z,100991.56
2023-05-09T13:04:25.301Z,100985.59
2023-05-09T13:06:55.478Z,100988.25
2023-05-09T13:09:24.469Z,100973.81
2023-05-09T13:11:52.175Z,100984.31
2023-05-09T13:14:21.802Z,100977.31
2023-05-09T13:16:48.695Z,100977.53
2023-05-09T13:19:16.439Z,100969.25
2023-05-09T13:21:43.381Z,100962.59
2023-05-09T13:24:10.139Z,100965.06
2023-05-09T13:26:39.533Z,100961.78
2023-05-09T13:29:06.292Z,100966.56
2023-05-09T13:31:33.573Z,100961.63
2023-05-09T13:34:00.419Z,100961.03
2023-05-09T13:36:27.453Z,100959.41
2023-05-09T13:38:54.344Z,100957.75
2023-05-09T13:41:23.896Z,100950.75
2023-05-09T13:43:52.265Z,100949.31
2023-05-09T13:46:19.224Z,100947.66
2023-05-09T13:48:47.937Z,100936.34
2023-05-09T13:51:15.076Z,100942.53
2023-05-09T13:53:41.876Z,100939.41
2023-05-09T13:56:09.794Z,100933.22
2023-05-09T13:58:36.951Z,100932.59
2023-05-09T14:01:07.680Z,100930.59
2023-05-09T14:03:34.761Z,100931.28
2023-05-09T14:06:01.915Z,100929.00
2023-05-09T14:08:34.157Z,100921.19
2023-05-09T14:11:02.995Z,100920.13
2023-05-09T14:13:32.033Z,100922.81
2023-05-09T14:16:00.103Z,100923.66
2023-05-09T14:18:30.515Z,100922.41
2023-05-09T14:21:00.723Z,100923.00
2023-05-09T14:23:31.775Z,100920.13
2023-05-09T14:26:08.717Z,100918.31
2023-05-09T14:28:52.661Z,100904.28
2023-05-09T14:31:22.522Z,100906.97
2023-05-09T14:33:52.637Z,100904.97
2023-05-09T14:36:44.937Z,100903.78
2023-05-09T14:41:53.690Z,100896.38
2023-05-09T14:44:35.650Z,100890.44
2023-05-09T14:47:10.993Z,100890.66
2023-05-09T14:52:36.502Z,100886.31
2023-05-09T14:58:30.969Z,100876.00
2023-05-09T15:09:02.005Z,100871.41
2023-05-09T15:17:38.684Z,100862.53
2023-05-09T15:20:27.536Z,100850.41
2023-05-09T15:26:44.304Z,100849.56
2023-05-09T15:30:01.394Z,100849.56
2023-05-09T15:32:37.624Z,100849.78
2023-05-09T15:56:53.157Z,100828.53
2023-05-09T15:59:19.852Z,100824.81
2023-05-09T16:01:46.705Z,100820.50
2023-05-09T16:04:14.082Z,100812.44
2023-05-09T16:06:41.837Z,100808.94
2023-05-09T16:09:09.240Z,100805.22
2023-05-09T16:11:36.282Z,100810.59
2023-05-09T16:14:08.130Z,100802.75
2023-05-09T16:16:35.075Z,100803.81
2023-05-09T16:19:03.581Z,100800.31
2023-05-09T16:21:32.920Z,100795.78
2023-05-09T16:24:02.882Z,100793.88
2023-05-09T16:26:29.660Z,100800.06
2023-05-09T16:28:56.372Z,100796.56
2023-05-09T16:31:26.639Z,100794.50
2023-05-09T16:33:54.088Z,100789.13
2023-05-09T16:36:21.056Z,100779.44
2023-05-09T16:38:47.850Z,100778.63
2023-05-09T16:41:14.692Z,100779.91
2023-05-09T16:43:41.563Z,100768.56
2023-05-09T16:46:08.685Z,100767.53
2023-05-09T16:48:36.686Z,100765.88
2023-05-09T16:51:03.408Z,100763.41
2023-05-09T16:53:30.105Z,100755.97
2023-05-09T16:55:58.494Z,100753.91
2023-05-09T16:58:25.348Z,100758.44
2023-05-09T17:00:52.115Z,100757.41
2023-05-09T17:03:18.794Z,100757.41
2023-05-09T17:05:46.814Z,100756.59
2023-05-09T17:08:13.548Z,100754.47
2023-05-09T17:10:41.985Z,100754.47
2023-05-09T17:13:09.068Z,100753.66
2023-05-09T17:15:36.957Z,100746.41
2023-05-09T17:18:04.476Z,100753.44
2023-05-09T17:20:31.840Z,100744.34
2023-05-09T17:22:59.875Z,100744.94
2023-05-09T17:25:26.489Z,100745.16
2023-05-09T17:27:53.757Z,100745.38
2023-05-09T17:30:23.242Z,100744.22
2023-05-09T17:32:50.259Z,100740.91
2023-05-09T17:35:19.425Z,100741.97
2023-05-09T17:37:46.380Z,100740.31
2023-05-09T17:40:14.998Z,100741.13
2023-05-09T17:42:42.274Z,100739.75
2023-05-09T17:45:12.395Z,100732.59
2023-05-09T17:47:39.495Z,100727.66
2023-05-09T17:50:07.222Z,100727.88
2023-05-09T17:52:34.288Z,100728.91
2023-05-09T17:55:01.863Z,100731.03
2023-05-09T17:57:29.939Z,100733.72
2023-05-09T17:59:56.830Z,100731.84
2023-05-09T18:02:24.226Z,100738.00
2023-05-09T18:04:51.733Z,100736.16
2023-05-09T18:07:18.414Z,100732.06
2023-05-09T18:09:46.141Z,100730.19
2023-05-09T18:12:12.869Z,100724.84
2023-05-09T18:14:41.043Z,100728.56
2023-05-09T18:17:07.912Z,100727.13
2023-05-09T18:19:35.454Z,100726.78
2023-05-09T18:22:02.266Z,100729.06
2023-05-09T18:24:29.215Z,100734.88
2023-05-09T18:26:55.842Z,100729.75
2023-05-09T18:29:23.683Z,100731.00
2023-05-09T18:31:52.098Z,100729.34
2023-05-09T18:34:18.935Z,100731.22
2023-05-09T18:36:47.062Z,100729.59
2023-05-09T18:39:14.263Z,100729.00
2023-05-09T18:41:42.952Z,100732.50
2023-05-09T18:44:09.770Z,100729.00
2023-05-09T18:46:36.768Z,100738.06
2023-05-09T18:49:04.920Z,100731.88
2023-05-09T18:51:31.721Z,100730.84
2023-05-09T18:53:58.461Z,100732.72
2023-05-09T18:56:25.579Z,100739.94
2023-05-09T18:58:52.384Z,100737.47
2023-05-09T19:01:20.083Z,100733.13
2023-05-09T19:03:53.482Z,100734.22
2023-05-09T19:06:24.058Z,100739.56
2023-05-09T19:08:52.079Z,100727.19
2023-05-09T19:11:18.780Z,100733.13
2023-05-09T19:13:48.633Z,100734.22
2023-05-09T19:16:17.190Z,100727.41
2023-05-09T19:18:43.901Z,100732.16
2023-05-09T19:21:13.141Z,100735.06
2023-05-09T19:23:41.326Z,100727.63
2023-05-09T19:26:08.440Z,100726.44
2023-05-09T19:28:35.576Z,100742.53
2023-05-09T19:31:02.272Z,100731.81
2023-05-09T19:33:28.951Z,100739.84
2023-05-09T19:35:55.972Z,100742.53
2023-05-09T19:38:22.713Z,100740.88
2023-05-09T19:40:51.188Z,100746.47
2023-05-09T19:43:17.921Z,100740.72
2023-05-09T19:45:44.722Z,100739.91
2023-05-09T19:48:15.297Z,100739.09
2023-05-09T19:50:42.536Z,100743.84
2023-05-09T19:53:09.222Z,100744.06
2023-05-09T19:55:36.038Z,100740.56
2023-05-09T19:58:06.909Z,100744.25
2023-05-09T20:00:36.020Z,100738.31
2023-05-09T20:03:04.680Z,100744.50
2023-05-09T20:08:15.836Z,100747.41
2023-05-09T20:10:42.582Z,100748.44
2023-05-09T20:13:10.823Z,100744.31
2023-05-09T20:15:37.557Z,100741.06
2023-05-09T20:18:07.157Z,100743.97
2023-05-09T20:20:34.079Z,100743.31
2023-05-09T20:23:03.856Z,100745.16
2023-05-09T20:25:30.679Z,100740.63
2023-05-09T20:27:57.472Z,100741.88
2023-05-09T20:30:25.529Z,100743.75
2023-05-09T20:32:52.659Z,100743.97
2023-05-09T20:35:19.457Z,100741.50
2023-05-09T20:37:46.451Z,100739.66
2023-05-09T20:40:13.893Z,100744.81
2023-05-09T20:42:40.982Z,100744.19
2023-05-09T20:45:08.630Z,100747.28
2023-05-09T20:47:36.905Z,100752.66
2023-05-09T20:50:06.166Z,100748.31
2023-05-09T20:52:32.827Z,100744.63
2023-05-09T20:54:59.433Z,100737.63
2023-05-09T20:57:26.212Z,100746.72
2023-05-09T20:59:52.920Z,100744.03
2023-05-09T21:02:20.211Z,100749.59
2023-05-09T21:04:48.339Z,100746.94
2023-05-09T21:07:19.508Z,100744.47
2023-05-09T21:09:47.065Z,100742.00
2023-05-09T21:12:13.728Z,100743.84
2023-05-09T21:14:40.926Z,100736.25
2023-05-09T21:17:07.777Z,100734.63
2023-05-09T21:19:34.639Z,100741.63
2023-05-09T21:22:02.974Z,100733.59
2023-05-09T21:24:29.618Z,100739.75
2023-05-09T21:26:56.257Z,100741.44
2023-05-09T21:29:29.917Z,100744.09
2023-05-09T21:31:56.503Z,100742.09
2023-05-09T21:34:23.281Z,100738.81
2023-05-09T21:36:51.851Z,100741.94
2023-05-09T21:39:19.894Z,100734.31
2023-05-09T21:41:46.577Z,100737.81
2023-05-09T21:44:13.250Z,100735.34
2023-05-09T21:46:41.205Z,100742.56
2023-05-09T21:49:08.020Z,100736.00
2023-05-09T21:51:35.020Z,100737.66
2023-05-09T21:54:01.600Z,100739.50
2023-05-09T21:56:29.792Z,100738.53
2023-05-09T21:58:56.594Z,100740.59
2023-05-09T22:01:23.244Z,100742.22
2023-05-09T22:03:50.142Z,100736.28
2023-05-09T22:06:16.871Z,100744.28
2023-05-09T22:08:43.568Z,100740.59
2023-05-09T22:11:10.991Z,100746.56
2023-05-09T22:13:40.676Z,100740.59
2023-05-09T22:16:07.769Z,100739.56
2023-05-09T22:18:34.543Z,100744.50
2023-05-09T22:21:01.469Z,100737.13
2023-05-09T22:23:28.148Z,100737.34
2023-05-09T22:25:54.843Z,100734.09
2023-05-09T22:28:21.549Z,100739.03
2023-05-09T22:30:49.715Z,100737.81
2023-05-09T22:33:16.452Z,100742.56
2023-05-09T22:35:43.135Z,100740.75
2023-05-09T22:38:18.958Z,100739.50
2023-05-09T22:40:45.629Z,100735.19
2023-05-09T22:43:12.629Z,100734.16
2023-05-09T22:45:39.397Z,100740.56
2023-05-09T22:48:07.580Z,100734.00
2023-05-09T22:50:35.098Z,100735.84
2023-05-09T22:53:02.066Z,100731.31
2023-05-09T22:55:28.904Z,100730.50
2023-05-09T22:57:55.545Z,100727.19
2023-05-09T23:00:22.430Z,100730.69
2023-05-09T23:02:49.462Z,100736.47
2023-05-09T23:05:17.976Z,100733.59
2023-05-09T23:07:44.796Z,100736.03
2023-05-09T23:10:11.639Z,100731.28
2023-05-09T23:12:38.607Z,100733.75
2023-05-09T23:15:07.388Z,100738.06
2023-05-09T23:17:34.113Z,100740.75
2023-05-09T23:20:01.582Z,100737.88
2023-05-09T23:22:29.640Z,100739.72
2023-05-09T23:24:56.500Z,100734.56
2023-05-09T23:27:23.195Z,100733.75
2023-05-09T23:29:49.801Z,100739.94
2023-05-09T23:32:16.715Z,100737.03
2023-05-09T23:34:43.438Z,100735.19
2023-05-09T23:37:10.101Z,100730.03
2023-05-09T23:39:38.138Z,100734.56
2023-05-09T23:42:05.023Z,100734.78
2023-05-09T23:44:31.794Z,100732.09
2023-05-09T23:46:58.554Z,100733.75
2023-05-09T23:49:25.230Z,100738.28
2023-05-09T23:51:51.892Z,100737.47
2023-05-09T23:54:18.717Z,100732.09
2023-05-09T23:56:47.787Z,100732.31
2023-05-09T23:59:14.440Z,100732.31
